Time;durP1;ratioP1;P1;durP2;ratioP2;P2;SDS_P1;SDS_P2;PMS_P1;PMS_P2;Temp;Humidity;BMP_temperature;BMP_pressure;BME280_temperature;BME280_humidity;BME280_pressure;Samples;Min_cycle;Max_cycle;Signal;HPM_P1;HPM_P2
2022/09/03 00:01:38;;;;;;;1.90;0.43;;;15.60;92.00;;;;;;5051269;28;20221;-50
2022/09/03 00:04:12;;;;;;;0.57;0.30;;;15.50;92.10;;;;;;5026893;28;21018;-50
2022/09/03 00:06:43;;;;;;;1.70;0.40;;;15.50;92.30;;;;;;5047597;28;20190;-49
2022/09/03 00:09:19;;;;;;;0.43;0.43;;;15.50;92.40;;;;;;5038495;28;22631;-49
2022/09/03 00:11:52;;;;;;;1.97;0.57;;;15.50;92.50;;;;;;5050250;28;20198;-50
2022/09/03 00:14:22;;;;;;;0.30;0.30;;;15.40;92.60;;;;;;5040239;28;20933;-49
2022/09/03 00:16:54;;;;;;;0.70;0.50;;;15.40;92.80;;;;;;5048070;28;20207;-53
2022/09/03 00:19:25;;;;;;;0.70;0.63;;;15.40;92.90;;;;;;5030771;28;20206;-50
2022/09/03 00:21:56;;;;;;;0.67;0.53;;;15.40;93.00;;;;;;5045266;28;20203;-48
2022/09/03 00:24:29;;;;;;;2.57;0.50;;;15.40;93.20;;;;;;5042735;28;20253;-51
2022/09/03 00:27:01;;;;;;;3.50;0.80;;;15.40;93.40;;;;;;5044708;28;20206;-50
2022/09/03 00:29:35;;;;;;;0.77;0.40;;;15.40;93.50;;;;;;5047336;28;20203;-50
2022/09/03 00:32:08;;;;;;;1.77;0.57;;;15.40;93.60;;;;;;5042883;28;20561;-48
2022/09/03 00:34:40;;;;;;;0.63;0.60;;;15.30;93.70;;;;;;5036421;28;20203;-47
2022/09/03 00:37:09;;;;;;;1.47;0.70;;;15.30;93.80;;;;;;5042722;28;20279;-45
2022/09/03 00:39:38;;;;;;;2.53;0.80;;;15.30;93.90;;;;;;5046222;28;20210;-48
2022/09/03 00:42:20;;;;;;;0.33;0.33;;;15.30;94.00;;;;;;5038666;28;21476;-47
2022/09/03 00:45:05;;;;;;;2.00;0.40;;;15.30;94.20;;;;;;5042218;28;20253;-47
2022/09/03 00:47:40;;;;;;;2.60;0.50;;;15.20;94.30;;;;;;5045171;28;20534;-46
2022/09/03 00:50:14;;;;;;;0.83;0.50;;;15.20;94.50;;;;;;5026946;28;20281;-44
2022/09/03 00:52:53;;;;;;;0.60;0.60;;;15.10;94.60;;;;;;5045366;28;20227;-46
2022/09/03 00:55:29;;;;;;;0.60;0.50;;;15.10;94.70;;;;;;5041524;28;20219;-48
2022/09/03 00:58:12;;;;;;;2.13;0.50;;;15.10;94.80;;;;;;5042663;28;20206;-51
2022/09/03 01:00:42;;;;;;;0.50;0.50;;;15.10;94.90;;;;;;5044875;28;20204;-50
2022/09/03 01:03:12;;;;;;;0.73;0.60;;;15.10;95.00;;;;;;5034416;28;20952;-49
2022/09/03 01:05:48;;;;;;;1.50;0.60;;;15.10;95.10;;;;;;5046578;28;20653;-50
2022/09/03 01:08:31;;;;;;;0.97;0.70;;;15.10;95.20;;;;;;5033798;28;20195;-48
2022/09/03 01:11:15;;;;;;;0.50;0.50;;;15.10;95.30;;;;;;5046236;28;20195;-49
2022/09/03 01:13:48;;;;;;;1.67;0.60;;;15.00;95.40;;;;;;5039654;28;20257;-46
2022/09/03 01:16:26;;;;;;;0.83;0.50;;;15.00;95.50;;;;;;5040018;28;20199;-48
2022/09/03 01:19:01;;;;;;;0.90;0.70;;;15.00;95.60;;;;;;5053578;28;20828;-45
2022/09/03 01:21:51;;;;;;;1.10;0.57;;;15.00;95.80;;;;;;5031631;28;20210;-47
2022/09/03 01:24:39;;;;;;;0.57;0.57;;;15.00;95.90;;;;;;5042440;28;20808;-46
2022/09/03 01:27:21;;;;;;;0.93;0.70;;;15.00;95.90;;;;;;5031802;28;20199;-50
2022/09/03 01:29:59;;;;;;;0.40;0.40;;;15.10;96.00;;;;;;5045151;28;20207;-49
2022/09/03 01:32:37;;;;;;;0.77;0.60;;;15.10;96.00;;;;;;5043813;28;20898;-49
2022/09/03 01:35:13;;;;;;;0.90;0.60;;;15.10;95.90;;;;;;5043029;28;20203;-52
2022/09/03 01:37:53;;;;;;;1.03;0.50;;;15.20;95.80;;;;;;5031721;28;20207;-45
2022/09/03 01:40:28;;;;;;;0.67;0.60;;;15.20;95.80;;;;;;5041392;28;20198;-46
2022/09/03 01:43:13;;;;;;;1.27;0.70;;;15.10;95.90;;;;;;5041762;28;20615;-50
2022/09/03 01:45:53;;;;;;;0.47;0.47;;;15.10;96.00;;;;;;5041340;28;20195;-47
2022/09/03 01:48:37;;;;;;;3.00;0.87;;;15.10;96.00;;;;;;5038493;28;20194;-47
2022/09/03 01:51:12;;;;;;;2.00;0.60;;;15.10;96.10;;;;;;5040645;28;20215;-49
2022/09/03 01:54:00;;;;;;;1.23;0.60;;;15.00;96.10;;;;;;5029363;28;20227;-48
2022/09/03 01:56:43;;;;;;;1.67;0.60;;;15.00;96.20;;;;;;5037039;28;20215;-46
2022/09/03 01:59:20;;;;;;;1.23;0.90;;;15.00;96.30;;;;;;5038148;28;20206;-48
2022/09/03 02:01:53;;;;;;;1.43;0.70;;;14.90;96.30;;;;;;5042179;28;20257;-51
2022/09/03 02:04:23;;;;;;;0.53;0.53;;;14.90;96.40;;;;;;5041869;28;20202;-47
2022/09/03 02:06:51;;;;;;;0.60;0.60;;;14.90;96.50;;;;;;5048893;28;20618;-49
2022/09/03 02:09:19;;;;;;;0.77;0.63;;;14.80;96.50;;;;;;5037337;28;20219;-50
2022/09/03 02:11:53;;;;;;;0.63;0.43;;;14.80;96.60;;;;;;5043562;28;20206;-50
2022/09/03 02:14:21;;;;;;;1.50;0.50;;;14.80;96.70;;;;;;5042599;28;20214;-48
2022/09/03 02:16:49;;;;;;;0.83;0.70;;;14.80;96.70;;;;;;5035167;28;20288;-50
2022/09/03 02:19:17;;;;;;;1.47;0.60;;;14.70;96.80;;;;;;5047556;28;20196;-49
2022/09/03 02:21:50;;;;;;;1.93;0.90;;;14.70;96.80;;;;;;5043226;28;20231;-48
2022/09/03 02:24:17;;;;;;;2.00;0.60;;;14.70;97.30;;;;;;5040605;28;20183;-46
2022/09/03 02:26:45;;;;;;;1.03;0.93;;;14.60;97.00;;;;;;5029644;28;20214;-49
2022/09/03 02:29:13;;;;;;;3.77;0.80;;;14.60;97.10;;;;;;5039398;28;20247;-46
2022/09/03 02:31:40;;;;;;;3.33;0.60;;;14.60;97.10;;;;;;5044602;28;20203;-48
2022/09/03 02:34:08;;;;;;;1.77;0.83;;;14.60;97.20;;;;;;5038738;28;20223;-46
2022/09/03 02:36:39;;;;;;;2.53;0.63;;;14.50;97.40;;;;;;5047278;28;20207;-50
2022/09/03 02:39:06;;;;;;;1.90;0.80;;;14.50;97.40;;;;;;5043729;28;20195;-49
2022/09/03 02:41:34;;;;;;;1.50;0.67;;;14.50;97.60;;;;;;5031793;28;20199;-46
2022/09/03 02:44:04;;;;;;;0.83;0.80;;;14.40;97.60;;;;;;5041033;28;20211;-49
2022/09/03 02:46:35;;;;;;;2.67;0.80;;;14.40;97.70;;;;;;5041578;28;20218;-46
2022/09/03 02:49:02;;;;;;;0.53;0.50;;;14.40;97.80;;;;;;5040794;28;20227;-51
2022/09/03 02:51:35;;;;;;;1.73;0.70;;;14.40;98.00;;;;;;5043705;28;20195;-51
2022/09/03 02:54:02;;;;;;;0.70;0.70;;;14.30;98.10;;;;;;5039742;28;20223;-53
2022/09/03 02:56:28;;;;;;;0.70;0.70;;;14.30;98.30;;;;;;5029387;28;20287;-49
2022/09/03 02:58:55;;;;;;;0.63;0.63;;;14.30;98.40;;;;;;5042139;28;20615;-51
2022/09/03 03:01:22;;;;;;;1.00;0.60;;;14.30;98.50;;;;;;5038953;28;21699;-45
2022/09/03 03:03:49;;;;;;;0.57;0.57;;;14.30;98.50;;;;;;5047521;28;20221;-47
2022/09/03 03:06:19;;;;;;;0.50;0.50;;;14.20;98.60;;;;;;5040666;28;20274;-47
2022/09/03 03:08:48;;;;;;;2.07;0.70;;;14.20;98.60;;;;;;5047140;28;20210;-50
2022/09/03 03:11:17;;;;;;;2.83;0.70;;;14.20;98.70;;;;;;5040350;28;20883;-48
2022/09/03 03:13:45;;;;;;;3.90;0.60;;;14.20;98.80;;;;;;5028899;28;20215;-49
2022/09/03 03:16:14;;;;;;;0.60;0.57;;;14.20;98.90;;;;;;5043514;28;21025;-49
2022/09/03 03:18:41;;;;;;;3.40;0.60;;;14.10;99.00;;;;;;5046716;28;20206;-50
2022/09/03 03:21:10;;;;;;;1.00;0.80;;;14.10;99.20;;;;;;5038210;28;20912;-49
2022/09/03 03:23:38;;;;;;;0.63;0.60;;;14.00;99.40;;;;;;5041533;28;20223;-49
2022/09/03 03:26:08;;;;;;;0.77;0.60;;;14.00;99.60;;;;;;5039074;28;20192;-46
2022/09/03 03:28:35;;;;;;;2.30;0.73;;;14.00;99.70;;;;;;5032319;28;20695;-46
2022/09/03 03:31:07;;;;;;;0.50;0.47;;;13.90;99.80;;;;;;5042858;28;20191;-50
2022/09/03 03:33:34;;;;;;;0.53;0.50;;;14.00;99.80;;;;;;5040230;28;20237;-45
2022/09/03 03:36:05;;;;;;;1.77;0.60;;;13.90;99.90;;;;;;5044816;28;20191;-50
2022/09/03 03:38:32;;;;;;;0.77;0.50;;;13.90;99.90;;;;;;5052328;28;20225;-47
2022/09/03 03:40:58;;;;;;;1.53;0.87;;;13.90;99.90;;;;;;5048868;28;20198;-49
2022/09/03 03:43:27;;;;;;;0.40;0.40;;;13.90;99.90;;;;;;5052824;28;20659;-49
2022/09/03 03:45:58;;;;;;;0.67;0.60;;;13.90;99.90;;;;;;5031642;28;20215;-48
2022/09/03 03:48:25;;;;;;;1.83;0.70;;;13.90;99.90;;;;;;5047232;28;20213;-48
2022/09/03 03:50:52;;;;;;;0.60;0.60;;;13.90;99.90;;;;;;5048237;28;20191;-50
2022/09/03 03:53:19;;;;;;;0.97;0.60;;;13.80;99.90;;;;;;5043738;28;20207;-46
2022/09/03 03:55:54;;;;;;;0.50;0.50;;;13.80;99.90;;;;;;5045997;28;20206;-47
2022/09/03 03:58:22;;;;;;;2.37;0.83;;;13.80;99.90;;;;;;5048372;28;20916;-48
2022/09/03 04:00:50;;;;;;;0.60;0.60;;;13.80;99.90;;;;;;5036723;28;20679;-46
2022/09/03 04:03:17;;;;;;;1.67;0.77;;;13.80;99.90;;;;;;5042714;28;20219;-46
2022/09/03 04:05:44;;;;;;;1.37;0.77;;;13.80;99.90;;;;;;5045112;28;20210;-47
2022/09/03 04:08:12;;;;;;;0.80;0.80;;;13.80;99.90;;;;;;5043662;28;20270;-46
2022/09/03 04:10:38;;;;;;;0.73;0.60;;;13.80;99.90;;;;;;5046509;28;20199;-48
2022/09/03 04:13:05;;;;;;;0.83;0.60;;;13.80;99.90;;;;;;5043224;28;20941;-49
2022/09/03 04:15:32;;;;;;;1.20;0.77;;;13.80;99.90;;;;;;5031975;28;20587;-44
2022/09/03 04:18:01;;;;;;;2.00;0.53;;;13.70;99.90;;;;;;5045008;28;20195;-46
2022/09/03 04:20:28;;;;;;;0.97;0.90;;;13.70;99.90;;;;;;5043290;28;20203;-45
2022/09/03 04:22:55;;;;;;;1.00;0.60;;;13.70;99.90;;;;;;5053560;28;20230;-45
2022/09/03 04:25:22;;;;;;;1.20;0.50;;;13.70;99.90;;;;;;5048218;28;20187;-44
2022/09/03 04:27:51;;;;;;;0.73;0.63;;;13.70;99.90;;;;;;5045474;28;20203;-46
2022/09/03 04:30:18;;;;;;;2.63;0.93;;;13.70;99.90;;;;;;5029273;28;20322;-47
2022/09/03 04:32:55;;;;;;;1.23;0.50;;;13.60;99.90;;;;;;5044981;28;20700;-48
2022/09/03 04:35:25;;;;;;;1.20;0.60;;;13.60;99.90;;;;;;5034929;28;20237;-47
2022/09/03 04:37:54;;;;;;;0.87;0.73;;;13.60;99.90;;;;;;5048840;28;20191;-49
2022/09/03 04:40:21;;;;;;;0.80;0.60;;;13.50;99.90;;;;;;5043509;28;20262;-47
2022/09/03 04:42:47;;;;;;;1.70;0.60;;;13.50;99.90;;;;;;5047183;28;20227;-49
2022/09/03 04:45:17;;;;;;;2.10;0.70;;;13.50;99.90;;;;;;5027127;28;20234;-46
2022/09/03 04:47:46;;;;;;;1.07;0.67;;;13.50;99.90;;;;;;5044657;28;20466;-48
2022/09/03 04:50:13;;;;;;;2.53;0.60;;;13.50;99.90;;;;;;5037366;28;20736;-47
2022/09/03 04:52:41;;;;;;;0.60;0.60;;;13.50;99.90;;;;;;5045675;28;20223;-48
2022/09/03 04:55:10;;;;;;;0.97;0.73;;;13.50;99.90;;;;;;5040931;28;20360;-49
2022/09/03 04:57:37;;;;;;;3.10;0.80;;;13.50;99.90;;;;;;5047257;28;20286;-46
2022/09/03 05:00:09;;;;;;;1.60;0.60;;;13.50;99.90;;;;;;5041282;28;20198;-48
2022/09/03 05:02:36;;;;;;;1.13;0.80;;;13.50;99.90;;;;;;5031560;28;20227;-47
2022/09/03 05:05:03;;;;;;;4.40;0.80;;;13.60;99.90;;;;;;5036998;28;20194;-52
2022/09/03 05:07:37;;;;;;;0.70;0.70;;;13.60;99.90;;;;;;5046066;28;20199;-48
2022/09/03 05:10:08;;;;;;;1.53;0.63;;;13.60;99.90;;;;;;5043363;28;20201;-46
2022/09/03 05:12:35;;;;;;;0.50;0.50;;;13.70;99.90;;;;;;5045597;28;20223;-45
2022/09/03 05:15:04;;;;;;;0.53;0.53;;;13.70;99.90;;;;;;5040497;28;20211;-48
2022/09/03 05:17:30;;;;;;;1.10;0.60;;;13.70;99.90;;;;;;5033566;28;20294;-45
2022/09/03 05:19:57;;;;;;;0.77;0.60;;;13.80;99.90;;;;;;5047528;28;20202;-43
2022/09/03 05:22:24;;;;;;;1.70;0.60;;;13.80;99.90;;;;;;5030401;28;20288;-46
2022/09/03 05:24:51;;;;;;;0.80;0.60;;;13.80;99.90;;;;;;5038864;28;20199;-44
2022/09/03 05:27:20;;;;;;;2.00;0.80;;;13.90;99.90;;;;;;5037376;28;20687;-50
2022/09/03 05:29:48;;;;;;;0.90;0.90;;;13.90;99.90;;;;;;5041456;28;20198;-47
2022/09/03 05:32:16;;;;;;;2.97;0.60;;;14.00;99.90;;;;;;5041748;28;20211;-47
2022/09/03 05:34:43;;;;;;;1.00;0.83;;;14.00;99.90;;;;;;5029863;28;20306;-45
2022/09/03 05:37:11;;;;;;;0.50;0.50;;;14.00;99.90;;;;;;5040502;28;20290;-45
2022/09/03 05:39:38;;;;;;;2.60;0.73;;;14.00;99.90;;;;;;5045642;28;20187;-48
2022/09/03 05:42:05;;;;;;;1.20;0.50;;;14.00;99.90;;;;;;5036389;28;20206;-45
2022/09/03 05:44:33;;;;;;;1.53;0.50;;;14.10;99.90;;;;;;5032242;28;20203;-47
2022/09/03 05:47:00;;;;;;;0.80;0.77;;;14.10;99.90;;;;;;5042255;28;20192;-45
2022/09/03 05:49:27;;;;;;;0.90;0.60;;;14.10;99.90;;;;;;5024878;28;20204;-48
2022/09/03 05:51:54;;;;;;;0.53;0.50;;;14.20;99.90;;;;;;5032859;28;20747;-46
2022/09/03 05:54:21;;;;;;;0.77;0.77;;;14.20;99.90;;;;;;5042258;28;20219;-45
2022/09/03 05:56:48;;;;;;;0.97;0.70;;;14.20;99.90;;;;;;5042598;28;20208;-47
2022/09/03 05:59:15;;;;;;;2.50;0.60;;;14.30;99.80;;;;;;5044191;28;20249;-42
2022/09/03 06:01:45;;;;;;;3.60;0.70;;;14.30;99.70;;;;;;5045547;28;20468;-43
2022/09/03 06:04:13;;;;;;;1.03;0.60;;;14.40;99.70;;;;;;5029105;28;20281;-49
2022/09/03 06:06:42;;;;;;;6.17;1.10;;;14.50;99.50;;;;;;5037017;28;21078;-46
2022/09/03 06:09:12;;;;;;;3.50;0.90;;;14.50;99.40;;;;;;5043407;28;20772;-47
2022/09/03 06:11:41;;;;;;;2.90;1.40;;;14.60;99.20;;;;;;5043433;28;20668;-42
2022/09/03 06:14:11;;;;;;;0.90;0.83;;;14.60;99.10;;;;;;5024881;28;20238;-46
2022/09/03 06:16:39;;;;;;;2.13;0.80;;;14.70;99.10;;;;;;5039603;28;20282;-43
2022/09/03 06:19:09;;;;;;;0.60;0.60;;;14.80;98.90;;;;;;5016591;28;20269;-43
2022/09/03 06:21:38;;;;;;;0.60;0.60;;;14.80;98.70;;;;;;5041078;28;20214;-45
2022/09/03 06:24:05;;;;;;;0.73;0.50;;;14.90;98.70;;;;;;5035384;28;20241;-43
2022/09/03 06:26:32;;;;;;;5.30;0.80;;;14.90;98.60;;;;;;5040298;28;20195;-47
2022/09/03 06:28:59;;;;;;;0.93;0.50;;;15.00;98.90;;;;;;5039959;28;20206;-44
2022/09/03 06:31:27;;;;;;;1.40;0.73;;;15.00;98.40;;;;;;5037691;28;20188;-42
2022/09/03 06:33:54;;;;;;;1.97;0.70;;;15.10;98.20;;;;;;5035032;28;20227;-46
2022/09/03 06:36:25;;;;;;;1.03;0.63;;;15.20;98.10;;;;;;5031069;28;20195;-44
2022/09/03 06:38:54;;;;;;;2.27;0.70;;;15.30;98.00;;;;;;5035807;28;20207;-43
2022/09/03 06:41:23;;;;;;;0.70;0.70;;;15.40;97.80;;;;;;5032368;28;20183;-46
2022/09/03 06:43:52;;;;;;;0.83;0.53;;;15.40;97.80;;;;;;5037599;28;20986;-44
2022/09/03 06:46:21;;;;;;;0.70;0.63;;;15.50;97.50;;;;;;5035682;28;20198;-43
2022/09/03 06:48:49;;;;;;;0.90;0.90;;;15.60;97.50;;;;;;5038542;28;20187;-43
2022/09/03 06:51:18;;;;;;;1.00;0.73;;;15.60;97.50;;;;;;5032435;28;20211;-43
2022/09/03 06:53:47;;;;;;;0.70;0.70;;;15.70;97.20;;;;;;5041301;28;20218;-46
2022/09/03 06:56:17;;;;;;;1.57;0.90;;;15.80;97.00;;;;;;5036742;28;20212;-44
2022/09/03 06:58:45;;;;;;;0.90;0.60;;;15.80;96.90;;;;;;5043726;28;20198;-44
2022/09/03 07:01:15;;;;;;;2.97;0.70;;;15.90;96.80;;;;;;5036648;28;20202;-45
2022/09/03 07:03:43;;;;;;;1.30;0.70;;;16.00;96.60;;;;;;5042868;28;20215;-45
2022/09/03 07:06:13;;;;;;;1.73;0.73;;;16.10;96.50;;;;;;5032264;28;20258;-45
2022/09/03 07:08:41;;;;;;;1.70;0.73;;;16.20;96.40;;;;;;5048581;28;20198;-44
2022/09/03 07:11:11;;;;;;;0.77;0.70;;;16.20;96.40;;;;;;5034417;28;20207;-47
2022/09/03 07:13:40;;;;;;;0.87;0.83;;;16.30;96.40;;;;;;5034314;28;20219;-44
2022/09/03 07:16:08;;;;;;;1.13;0.83;;;16.30;96.40;;;;;;5035052;28;20215;-43
2022/09/03 07:18:35;;;;;;;0.70;0.70;;;16.40;96.10;;;;;;5040381;28;20241;-43
2022/09/03 07:21:05;;;;;;;0.90;0.83;;;16.60;95.90;;;;;;5038836;28;20210;-45
2022/09/03 07:23:32;;;;;;;0.73;0.70;;;16.60;95.80;;;;;;5034235;28;20229;-48
2022/09/03 07:26:01;;;;;;;1.13;1.03;;;16.70;95.50;;;;;;5038380;28;20253;-43
2022/09/03 07:28:31;;;;;;;1.10;1.00;;;16.70;95.30;;;;;;5040621;28;20202;-42
2022/09/03 07:31:03;;;;;;;0.97;0.80;;;16.80;95.10;;;;;;5038878;28;20211;-45
2022/09/03 07:33:31;;;;;;;1.37;0.87;;;16.90;95.00;;;;;;5043483;28;20333;-44
2022/09/03 07:36:02;;;;;;;1.10;0.70;;;17.00;94.90;;;;;;5035979;28;20257;-41
2022/09/03 07:38:29;;;;;;;2.63;0.70;;;17.10;94.80;;;;;;5034103;28;20684;-41
2022/09/03 07:40:58;;;;;;;0.73;0.73;;;17.20;94.60;;;;;;5040716;28;20953;-41
2022/09/03 07:43:26;;;;;;;1.33;0.83;;;17.30;94.40;;;;;;5040727;28;20223;-45
2022/09/03 07:45:54;;;;;;;2.77;1.30;;;17.30;94.30;;;;;;5035291;28;20198;-40
2022/09/03 07:48:21;;;;;;;2.53;0.70;;;17.30;94.20;;;;;;5039113;28;20207;-43
2022/09/03 07:50:48;;;;;;;3.13;0.83;;;17.50;94.00;;;;;;5035368;28;21065;-44
2022/09/03 07:53:16;;;;;;;1.70;0.70;;;17.60;93.90;;;;;;5026828;28;20876;-44
2022/09/03 07:55:43;;;;;;;2.10;0.63;;;17.70;93.70;;;;;;5034402;28;20223;-43
2022/09/03 07:58:11;;;;;;;2.77;0.83;;;17.90;93.30;;;;;;5043703;28;20191;-41
2022/09/03 08:00:37;;;;;;;1.80;0.77;;;18.00;93.20;;;;;;5038621;28;20207;-41
2022/09/03 08:03:07;;;;;;;1.23;0.73;;;18.00;92.90;;;;;;5040356;28;20218;-41
2022/09/03 08:05:36;;;;;;;4.83;0.70;;;18.20;93.00;;;;;;5036285;28;20203;-44
2022/09/03 08:08:04;;;;;;;1.87;0.80;;;18.30;92.60;;;;;;5038724;28;20195;-42
2022/09/03 08:10:31;;;;;;;2.77;0.80;;;18.40;92.50;;;;;;5029085;28;20203;-42
2022/09/03 08:12:58;;;;;;;1.93;0.60;;;18.50;92.00;;;;;;5037005;28;20241;-42
2022/09/03 08:15:26;;;;;;;0.57;0.57;;;18.60;92.00;;;;;;5041563;28;20688;-45
2022/09/03 08:17:53;;;;;;;3.30;0.80;;;18.70;91.80;;;;;;5038543;28;20191;-41
2022/09/03 08:20:21;;;;;;;1.20;0.83;;;18.80;91.40;;;;;;5044628;28;20550;-44
2022/09/03 08:22:50;;;;;;;1.70;0.80;;;18.90;91.10;;;;;;5037770;28;20242;-41
2022/09/03 08:25:16;;;;;;;1.07;0.70;;;18.90;90.90;;;;;;5035437;28;20210;-42
2022/09/03 08:27:43;;;;;;;1.43;0.90;;;19.00;90.80;;;;;;5039294;28;20210;-46
2022/09/03 08:30:11;;;;;;;5.83;0.97;;;19.10;90.70;;;;;;5045511;28;20206;-41
2022/09/03 08:32:38;;;;;;;1.13;0.70;;;19.20;90.70;;;;;;5043826;28;20280;-42
2022/09/03 08:35:08;;;;;;;2.93;0.80;;;19.30;90.50;;;;;;5044835;28;20206;-44
2022/09/03 08:37:36;;;;;;;2.30;0.90;;;19.40;90.00;;;;;;5034132;28;20205;-43
2022/09/03 08:40:05;;;;;;;2.03;0.93;;;19.50;89.20;;;;;;5033734;28;20195;-46
2022/09/03 08:42:49;;;;;;;1.43;0.77;;;19.60;89.00;;;;;;5043252;28;20297;-41
2022/09/03 08:45:19;;;;;;;1.03;0.90;;;19.80;87.30;;;;;;5027228;28;20664;-41
2022/09/03 08:47:48;;;;;;;1.07;0.70;;;19.90;87.10;;;;;;5038743;28;20204;-41
2022/09/03 08:50:23;;;;;;;0.83;0.70;;;20.10;86.40;;;;;;5043883;28;20195;-41
2022/09/03 08:52:58;;;;;;;4.70;0.73;;;20.20;85.90;;;;;;5041679;28;20958;-43
2022/09/03 08:55:27;;;;;;;2.07;0.90;;;20.30;85.20;;;;;;5030025;28;20579;-41
2022/09/03 08:58:01;;;;;;;2.43;0.80;;;20.50;84.50;;;;;;5045192;28;20206;-43
2022/09/03 09:00:38;;;;;;;3.33;1.03;;;20.40;83.50;;;;;;5037611;28;20215;-42
2022/09/03 09:03:21;;;;;;;1.70;0.60;;;20.30;84.00;;;;;;5044149;28;20215;-45
2022/09/03 09:05:55;;;;;;;2.73;1.00;;;20.30;83.00;;;;;;5043169;28;20202;-43
2022/09/03 09:08:33;;;;;;;2.90;0.70;;;20.30;83.00;;;;;;5040877;28;20277;-42
2022/09/03 09:11:06;;;;;;;1.10;0.80;;;20.30;82.70;;;;;;5032213;28;20286;-42
2022/09/03 09:13:40;;;;;;;1.93;0.80;;;20.20;83.10;;;;;;5036550;28;20222;-50
2022/09/03 09:16:15;;;;;;;4.13;0.90;;;20.20;83.10;;;;;;5042682;28;20237;-50
2022/09/03 09:18:54;;;;;;;1.50;1.07;;;20.10;82.90;;;;;;5042041;28;20218;-42
2022/09/03 09:21:27;;;;;;;2.17;0.70;;;19.90;82.60;;;;;;5038184;28;20674;-42
2022/09/03 09:24:02;;;;;;;1.67;1.00;;;19.80;83.30;;;;;;5044546;28;20230;-42
2022/09/03 09:26:30;;;;;;;2.43;0.70;;;19.70;83.40;;;;;;5030572;28;20339;-46
2022/09/03 09:29:01;;;;;;;3.83;0.90;;;19.60;83.10;;;;;;5043693;28;20214;-43
2022/09/03 09:31:29;;;;;;;1.07;0.80;;;19.60;83.30;;;;;;5035400;28;20210;-41
2022/09/03 09:34:00;;;;;;;3.30;0.77;;;19.50;83.10;;;;;;5044543;28;20225;-46
2022/09/03 09:36:27;;;;;;;3.03;0.93;;;19.40;83.20;;;;;;5047350;28;20225;-47
2022/09/03 09:38:55;;;;;;;5.13;1.00;;;19.40;83.20;;;;;;5044694;28;20200;-42
2022/09/03 09:41:23;;;;;;;2.20;0.77;;;19.50;82.50;;;;;;5028866;28;20278;-41
2022/09/03 09:44:01;;;;;;;2.83;0.80;;;19.80;81.70;;;;;;5044318;28;20215;-43
2022/09/03 09:46:34;;;;;;;1.10;0.70;;;20.10;81.10;;;;;;5032625;28;21348;-42
2022/09/03 09:49:01;;;;;;;2.13;0.80;;;20.20;80.90;;;;;;5041507;28;20608;-43
2022/09/03 09:51:29;;;;;;;1.00;0.70;;;20.10;79.30;;;;;;5040289;28;20219;-45
2022/09/03 09:54:15;;;;;;;0.97;0.70;;;20.10;79.50;;;;;;5043209;28;20223;-42
2022/09/03 09:56:43;;;;;;;1.43;0.60;;;20.30;78.70;;;;;;5032943;28;20243;-43
2022/09/03 09:59:11;;;;;;;1.70;1.10;;;20.60;78.30;;;;;;5048727;28;20202;-43
2022/09/03 10:01:40;;;;;;;3.40;0.80;;;20.70;77.40;;;;;;5037319;28;20218;-44
2022/09/03 10:04:13;;;;;;;3.57;0.90;;;20.90;75.70;;;;;;5040414;28;20238;-42
2022/09/03 10:06:55;;;;;;;1.63;0.70;;;21.00;74.50;;;;;;5038109;28;20254;-41
2022/09/03 10:09:26;;;;;;;7.13;0.83;;;21.10;74.80;;;;;;5040514;28;20389;-42
2022/09/03 10:12:03;;;;;;;2.13;0.93;;;21.20;74.70;;;;;;5034033;28;20211;-42
2022/09/03 10:14:35;;;;;;;9.67;1.07;;;21.40;72.40;;;;;;5041223;28;20493;-46
2022/09/03 10:17:10;;;;;;;1.03;0.60;;;21.50;72.20;;;;;;5038965;28;20215;-42
2022/09/03 10:20:25;;;;;;;2.87;0.57;;;21.50;70.60;;;;;;5046658;28;20939;-45
2022/09/03 10:22:40;;;;;;;1.80;0.50;;;21.60;68.70;;;;;;5038214;28;20211;-47
2022/09/03 10:25:10;;;;;;;1.80;0.87;;;21.50;68.10;;;;;;5028213;28;20203;-43
2022/09/03 10:27:38;;;;;;;0.80;0.73;;;21.50;66.70;;;;;;5026189;28;22342;-43
2022/09/03 10:30:06;;;;;;;0.50;0.50;;;21.50;66.90;;;;;;5042825;28;20198;-45
2022/09/03 10:32:43;;;;;;;2.43;0.67;;;21.40;67.30;;;;;;5037583;28;20337;-44
2022/09/03 10:35:18;;;;;;;1.60;0.73;;;21.30;66.90;;;;;;5045194;28;20199;-43
2022/09/03 10:37:49;;;;;;;1.20;0.67;;;21.20;66.90;;;;;;5041362;28;20217;-45
2022/09/03 10:40:29;;;;;;;3.70;0.70;;;21.20;66.20;;;;;;5036698;28;20567;-43
2022/09/03 10:43:16;;;;;;;2.90;0.70;;;21.40;66.30;;;;;;5024551;28;20302;-42
2022/09/03 10:45:55;;;;;;;3.70;0.80;;;21.60;66.20;;;;;;5033603;28;20237;-44
2022/09/03 10:48:43;;;;;;;1.43;0.97;;;21.90;65.20;;;;;;5036238;28;20837;-43
2022/09/03 10:51:19;;;;;;;1.57;0.50;;;22.10;63.50;;;;;;5042455;28;20635;-43
2022/09/03 10:54:07;;;;;;;1.30;0.60;;;22.40;62.00;;;;;;5039883;28;20254;-45
2022/09/03 10:56:49;;;;;;;5.10;0.80;;;22.60;60.40;;;;;;5043378;28;20218;-47
2022/09/03 10:59:32;;;;;;;2.20;0.70;;;22.60;60.70;;;;;;5027031;28;20286;-46
2022/09/03 11:02:15;;;;;;;1.47;0.60;;;22.50;60.80;;;;;;5042898;28;20282;-42
2022/09/03 11:04:52;;;;;;;0.53;0.53;;;22.50;60.90;;;;;;5038494;28;20195;-43
2022/09/03 11:07:22;;;;;;;2.30;0.70;;;22.60;58.90;;;;;;5041098;28;20277;-42
2022/09/03 11:09:55;;;;;;;3.33;1.00;;;22.60;58.40;;;;;;5046664;28;20209;-42
2022/09/03 11:12:29;;;;;;;3.00;0.80;;;22.40;58.40;;;;;;5039767;28;20211;-46
2022/09/03 11:15:02;;;;;;;0.80;0.73;;;22.20;58.40;;;;;;5031094;28;20207;-44
2022/09/03 11:17:37;;;;;;;2.33;1.07;;;22.10;58.90;;;;;;5038549;28;21039;-44
2022/09/03 11:20:14;;;;;;;0.93;0.70;;;22.00;59.40;;;;;;5038499;28;20246;-44
2022/09/03 11:22:43;;;;;;;3.50;0.60;;;21.90;59.30;;;;;;5042803;28;20215;-42
2022/09/03 11:25:13;;;;;;;0.93;0.83;;;22.00;59.50;;;;;;5038227;28;20555;-47
2022/09/03 11:27:56;;;;;;;0.87;0.67;;;22.10;59.50;;;;;;5036282;28;20195;-42
2022/09/03 11:30:24;;;;;;;1.50;0.60;;;22.00;59.80;;;;;;5022629;28;20867;-43
2022/09/03 11:32:54;;;;;;;0.77;0.63;;;21.90;60.10;;;;;;5043482;28;20223;-43
2022/09/03 11:35:27;;;;;;;0.67;0.57;;;21.80;60.40;;;;;;5042851;28;20203;-43
2022/09/03 11:37:58;;;;;;;1.07;0.67;;;21.80;60.10;;;;;;5054628;28;20253;-42
2022/09/03 11:40:32;;;;;;;1.33;0.57;;;21.70;60.60;;;;;;5039577;28;20883;-42
2022/09/03 11:43:11;;;;;;;2.83;0.70;;;21.70;60.60;;;;;;5038581;28;20238;-44
2022/09/03 11:45:39;;;;;;;0.70;0.70;;;21.70;59.50;;;;;;5034920;28;20217;-44
2022/09/03 11:48:32;;;;;;;0.80;0.63;;;21.90;58.90;;;;;;5042860;28;20253;-43
2022/09/03 11:50:59;;;;;;;0.87;0.77;;;22.10;57.40;;;;;;5038885;28;20549;-46
2022/09/03 11:53:33;;;;;;;1.27;0.70;;;22.20;57.70;;;;;;5038434;28;20214;-46
2022/09/03 11:56:02;;;;;;;2.20;0.63;;;22.40;57.80;;;;;;5043683;28;20215;-44
2022/09/03 11:58:33;;;;;;;2.80;0.80;;;22.50;57.20;;;;;;5040119;28;20183;-43
2022/09/03 12:01:03;;;;;;;0.70;0.70;;;22.30;57.50;;;;;;5035730;28;20231;-43
2022/09/03 12:03:42;;;;;;;1.30;0.60;;;22.40;57.10;;;;;;5042762;28;20215;-44
2022/09/03 12:06:26;;;;;;;1.20;0.60;;;22.50;56.60;;;;;;5047317;28;20206;-44
2022/09/03 12:09:06;;;;;;;0.57;0.50;;;22.60;56.40;;;;;;5045539;28;20206;-43
2022/09/03 12:11:44;;;;;;;1.70;0.63;;;22.60;56.10;;;;;;5042291;28;20211;-43
2022/09/03 12:14:21;;;;;;;3.87;1.13;;;22.60;56.10;;;;;;5032926;28;20564;-43
2022/09/03 12:17:11;;;;;;;1.57;0.80;;;22.70;55.50;;;;;;5024816;28;20214;-45
2022/09/03 12:19:45;;;;;;;0.87;0.53;;;22.80;54.40;;;;;;5035893;28;20203;-45
2022/09/03 12:22:17;;;;;;;1.13;0.50;;;23.00;54.50;;;;;;5045530;28;20612;-43
2022/09/03 12:24:44;;;;;;;1.33;0.57;;;23.10;54.20;;;;;;5036277;28;20298;-48
2022/09/03 12:27:16;;;;;;;0.73;0.73;;;23.20;53.90;;;;;;5044962;28;20684;-48
2022/09/03 12:29:56;;;;;;;1.43;0.83;;;23.20;53.60;;;;;;5037388;28;20210;-47
2022/09/03 12:32:24;;;;;;;0.70;0.60;;;23.20;53.10;;;;;;5030107;28;20226;-43
2022/09/03 12:34:50;;;;;;;2.77;0.50;;;23.30;53.60;;;;;;5039912;28;20210;-43
2022/09/03 12:37:21;;;;;;;1.35;0.85;;;23.50;53.40;;;;;;5042878;28;20219;-43
2022/09/03 12:39:51;;;;;;;3.22;0.60;;;23.60;53.10;;;;;;5036865;28;20282;-44
2022/09/03 12:42:22;;;;;;;1.17;0.52;;;23.70;52.90;;;;;;5043520;28;20234;-44
2022/09/03 12:44:50;;;;;;;1.90;0.77;;;23.70;52.70;;;;;;5034029;28;20199;-46
2022/09/03 12:47:20;;;;;;;3.47;0.80;;;23.90;52.20;;;;;;5031452;28;20206;-45
2022/09/03 12:49:49;;;;;;;1.63;0.68;;;24.00;52.20;;;;;;5040795;28;20818;-47
2022/09/03 12:52:20;;;;;;;2.03;0.80;;;24.10;52.10;;;;;;5036466;28;20211;-44
2022/09/03 12:54:51;;;;;;;2.10;0.50;;;24.20;51.70;;;;;;5040271;28;20187;-41
2022/09/03 12:57:23;;;;;;;1.08;0.70;;;24.30;51.30;;;;;;5032677;28;20224;-45
2022/09/03 12:59:56;;;;;;;1.25;0.77;;;24.20;50.50;;;;;;5039650;28;21437;-48
2022/09/03 13:02:27;;;;;;;0.60;0.50;;;24.10;50.40;;;;;;5033231;28;20220;-43
2022/09/03 13:04:55;;;;;;;1.80;0.55;;;24.10;50.90;;;;;;5034176;28;20204;-47
2022/09/03 13:07:27;;;;;;;2.78;0.80;;;24.20;50.60;;;;;;5039688;28;20204;-48
2022/09/03 13:10:02;;;;;;;0.68;0.50;;;24.20;50.20;;;;;;5055735;28;20199;-45